BPST2: Bateman Pump Station

Data processed at Fri Dec 08 2017 23:33


All information presented herein is the property of the government of the United States of America and may be revised or deleted at any time without prior notice.
Dissemination of this information without the expressed written consent of the Public Affairs Office, Tulsa District U.S. Army Corps of Engineers is strictly prohibited.
These data are gathered electronically and, as presented, have not undergone any form of quality control. These data are not guaranteed to be valid or correct.
Go to home page.
Go to station list.

Downstream station:


Previous Day
Next Day
Current Day
    
SHEF ID:       BPST2     S Wichita Rv bl Low Flow Dam nr
STATION TYPE:  reregulating structure

               PRECIP     STAGE  RIV-FLOW ELEVATION   TW-ELEV  WTR-TEMP   CONDUCT  BAT-LOAD
                   in        ft       cfs        ft        ft         F   umho/cm      volt
              Ccp-Rev   Ccp-Rev   Ccp-Rev   Ccp-Rev   Ccp-Rev   Ccp-Rev   Ccp-Rev   Ccp-Rev
(US/Central)
12/06 00:00      0.00      3.33             1599.56      ----     54.34        65     13.44
12/06 01:00      0.00      3.33             1599.56      ----     54.21        65     13.44
12/06 02:00      0.00      4.61         7   1599.46      ----     54.01        66     13.44
12/06 03:00      0.00     12.47      4670   1599.00      ----     54.12        65     13.44
12/06 04:00      0.00      4.49         5   1598.60      ----     55.13        65     13.44
12/06 05:00      0.00      4.05         2   1598.51      ----     56.43        65     13.44
12/06 06:00      0.00      3.50             1598.53      ----     56.05        65     13.44
12/06 07:00      0.00      3.36             1598.55      ----     56.01        65     13.44
12/06 08:00      0.00      3.31             1598.57      ----     56.44        65     13.44
12/06 09:00      0.00      3.29             1598.59      ----     56.46        65     13.44
12/06 10:00      0.00      3.27             1598.60      ----     56.57        65     13.44
12/06 11:00      0.00      3.25             1598.62      ----     56.62        65     13.44
12/06 12:00      0.00      3.25             1598.63      ----     56.84        65     13.44
12/06 13:00      0.00      3.24             1598.64      ----     56.98        65     13.29
12/06 14:00      0.00      3.24             1598.65      ----     57.20        65     13.44
12/06 15:00      0.00      3.23         0   1598.66      ----     57.11        65     13.44
12/06 16:00      0.00      3.23         0   1598.68      ----     57.09        65     13.44
12/06 17:00      0.00      3.23         0   1598.69      ----     56.89        66     13.44
12/06 18:00      0.00      3.23         0   1598.70      ----     56.61        66     13.44
12/06 19:00      0.00      3.23         0   1598.71      ----     56.14        66     13.44
12/06 20:00      0.00      3.23         0   1598.72      ----     55.38        66     13.44
12/06 21:00      0.00      3.23         0   1598.73      ----     55.17        66     13.44
12/06 22:00      0.00      3.23         0   1598.74      ----     54.86        66     13.44
12/06 23:00      0.00      3.24             1598.75      ----     54.68        66     13.44